Terminal Aerodrome Forecast
Issued by NWS Caribou, ME

Home | Current Version | Previous Version | Text Only | Print | Product List | Glossary On
Versions: 1 2 3 4 5 6 7 8 9 10 11 12 13 14 15 16 17 18 19 20 21 22 23 24
000
FTUS41 KCAR 252323
TAFCAR
TAF
KCAR 252323Z 2600/2624 25010KT P6SM BKN120
     FM260400 21005KT 3SM -SHRA BKN090
     FM260600 19005KT 2SM -SHRA OVC015
     FM261200 20010KT 3SM -SHRA OVC008
     FM261400 22012KT P6SM BKN008
      TEMPO 2614/2618 BKN020
     FM261800 25013KT P6SM BKN050=

USA.gov is the U.S. government's official web portal to all federal, state and local government web resources and services.